createdAt,value
2022-12-18T00:01:42.390Z,5.55
2022-12-18T00:04:21.764Z,5.90
2022-12-18T00:06:51.703Z,5.00
2022-12-18T00:09:24.721Z,5.43
2022-12-18T00:11:56.367Z,5.15
2022-12-18T00:14:25.142Z,5.47
2022-12-18T00:16:53.211Z,8.73
2022-12-18T00:19:21.421Z,7.32
2022-12-18T00:21:49.731Z,6.35
2022-12-18T00:24:18.073Z,6.22
2022-12-18T00:26:49.170Z,6.32
2022-12-18T00:29:17.193Z,5.43
2022-12-18T00:31:45.525Z,6.05
2022-12-18T00:34:14.600Z,5.03
2022-12-18T00:36:43.021Z,6.03
2022-12-18T00:39:17.132Z,7.30
2022-12-18T00:42:16.310Z,7.65
2022-12-18T00:44:44.380Z,6.80
2022-12-18T00:47:12.462Z,5.75
2022-12-18T00:49:40.591Z,4.60
2022-12-18T00:52:08.541Z,6.00
2022-12-18T00:54:36.681Z,5.90
2022-12-18T00:57:06.033Z,6.35
2022-12-18T00:59:34.102Z,6.45
2022-12-18T01:02:02.162Z,6.63
2022-12-18T01:04:34.532Z,6.00
2022-12-18T01:07:02.802Z,6.45
2022-12-18T01:09:30.783Z,7.07
2022-12-18T01:11:58.762Z,6.10
2022-12-18T01:14:28.642Z,6.60
2022-12-18T01:16:56.853Z,6.38
2022-12-18T01:19:25.131Z,6.68
2022-12-18T01:21:53.142Z,6.88
2022-12-18T01:24:21.181Z,6.72
2022-12-18T01:26:50.402Z,6.97
2022-12-18T01:29:18.332Z,7.57
2022-12-18T01:31:48.034Z,6.07
2022-12-18T01:34:16.172Z,6.18
2022-12-18T01:36:44.281Z,4.72
2022-12-18T01:39:14.021Z,4.18
2022-12-18T01:42:02.130Z,4.72
2022-12-18T01:45:20.692Z,4.13
2022-12-18T01:47:53.133Z,3.88
2022-12-18T01:50:23.812Z,3.78
2022-12-18T01:52:54.717Z,4.10
2022-12-18T01:55:26.185Z,3.60
2022-12-18T01:57:56.263Z,4.05
2022-12-18T02:00:26.201Z,3.33
2022-12-18T02:02:57.527Z,3.42
2022-12-18T02:05:36.893Z,3.58
2022-12-18T02:08:12.421Z,3.17
2022-12-18T02:10:49.212Z,3.40
2022-12-18T02:13:23.555Z,3.15
2022-12-18T02:16:02.341Z,3.00
2022-12-18T02:18:37.111Z,3.25
2022-12-18T02:21:14.032Z,3.20
2022-12-18T02:23:57.824Z,2.63
2022-12-18T02:26:33.046Z,3.47
2022-12-18T02:29:05.392Z,3.35
2022-12-18T02:31:40.371Z,3.25
2022-12-18T02:34:10.761Z,2.97
2022-12-18T02:36:43.822Z,3.60
2022-12-18T02:39:14.986Z,3.75
2022-12-18T02:42:01.453Z,3.67
2022-12-18T02:44:31.362Z,4.55
2022-12-18T02:47:00.347Z,3.60
2022-12-18T02:49:36.193Z,4.13
2022-12-18T02:52:10.955Z,3.63
2022-12-18T02:54:53.222Z,3.80
2022-12-18T02:57:32.661Z,3.78
2022-12-18T03:00:05.761Z,4.80
2022-12-18T03:02:39.214Z,4.45
2022-12-18T03:05:13.401Z,5.20
2022-12-18T03:07:47.801Z,5.10
2022-12-18T03:10:21.051Z,4.60
2022-12-18T03:12:55.537Z,5.10
2022-12-18T03:15:28.011Z,5.47
2022-12-18T03:18:08.701Z,4.95
2022-12-18T03:20:38.381Z,5.30
2022-12-18T03:23:10.733Z,5.00
2022-12-18T03:25:41.682Z,5.60
2022-12-18T03:28:16.191Z,5.40
2022-12-18T03:30:47.459Z,5.97
2022-12-18T03:33:20.822Z,5.13
2022-12-18T03:35:51.364Z,5.47
2022-12-18T03:38:20.685Z,4.55
2022-12-18T03:41:01.782Z,5.40
2022-12-18T03:43:43.172Z,5.18
2022-12-18T03:46:22.648Z,5.65
2022-12-18T03:48:57.042Z,5.13
2022-12-18T03:51:32.631Z,6.32
2022-12-18T03:54:03.023Z,5.38
2022-12-18T03:56:38.162Z,6.10
2022-12-18T03:59:11.533Z,5.22
2022-12-18T04:01:44.230Z,5.75
2022-12-18T04:04:16.262Z,6.05
2022-12-18T04:06:47.842Z,5.45
2022-12-18T04:09:16.681Z,5.47
2022-12-18T04:11:48.871Z,5.63
2022-12-18T04:14:19.660Z,5.53
2022-12-18T04:16:52.410Z,6.22
2022-12-18T04:19:25.198Z,5.85
2022-12-18T04:21:54.709Z,5.47
2022-12-18T04:24:23.140Z,5.57
2022-12-18T04:27:10.550Z,5.60
2022-12-18T04:29:47.370Z,5.07
2022-12-18T04:32:17.250Z,5.65
2022-12-18T04:34:46.491Z,5.45
2022-12-18T04:37:14.720Z,5.45
2022-12-18T04:39:43.909Z,5.75
2022-12-18T04:42:20.120Z,6.05
2022-12-18T04:44:50.010Z,5.18
2022-12-18T04:47:18.290Z,5.28
2022-12-18T04:49:46.612Z,6.13
2022-12-18T04:52:14.569Z,5.57
2022-12-18T04:54:42.819Z,6.20
2022-12-18T04:57:10.781Z,5.65
2022-12-18T04:59:38.949Z,5.03
2022-12-18T05:02:08.635Z,5.65
2022-12-18T05:04:36.920Z,5.35
2022-12-18T05:07:07.319Z,5.15
2022-12-18T05:09:35.940Z,5.75
2022-12-18T05:12:04.512Z,4.97
2022-12-18T05:14:32.579Z,5.57
2022-12-18T05:17:01.171Z,5.13
2022-12-18T05:19:30.909Z,5.55
2022-12-18T05:21:58.999Z,5.60
2022-12-18T05:24:26.999Z,5.88
2022-12-18T05:26:54.990Z,6.68
2022-12-18T05:29:23.459Z,7.13
2022-12-18T05:31:51.684Z,6.97
2022-12-18T05:34:19.859Z,6.72
2022-12-18T05:36:49.439Z,6.90
2022-12-18T05:39:17.510Z,6.38
2022-12-18T05:41:45.699Z,6.40
2022-12-18T05:44:13.869Z,6.72
2022-12-18T05:46:45.046Z,6.13
2022-12-18T05:49:13.299Z,6.35
2022-12-18T05:51:41.261Z,6.35
2022-12-18T05:54:11.198Z,6.35
2022-12-18T05:56:41.968Z,6.00
2022-12-18T05:59:14.048Z,7.00
2022-12-18T06:01:42.915Z,6.45
2022-12-18T06:04:11.229Z,6.10
2022-12-18T06:06:39.759Z,6.00
2022-12-18T06:09:11.360Z,5.90
2022-12-18T06:11:40.440Z,5.72
2022-12-18T06:14:08.699Z,6.03
2022-12-18T06:16:36.903Z,6.20
2022-12-18T06:19:06.758Z,6.05
2022-12-18T06:21:34.980Z,5.75
2022-12-18T06:24:03.200Z,5.95
2022-12-18T06:26:32.750Z,6.70
2022-12-18T06:29:01.249Z,5.72
2022-12-18T06:31:29.724Z,6.28
2022-12-18T06:33:59.112Z,5.70
2022-12-18T06:36:37.829Z,5.32
2022-12-18T06:39:08.678Z,6.13
2022-12-18T06:41:39.669Z,5.43
2022-12-18T06:44:08.361Z,6.40
2022-12-18T06:46:37.312Z,6.20
2022-12-18T06:49:05.989Z,6.75
2022-12-18T06:51:34.489Z,7.70
2022-12-18T06:54:02.769Z,7.25
2022-12-18T06:56:31.728Z,7.50
2022-12-18T06:59:02.039Z,7.95
2022-12-18T07:01:31.266Z,7.63
2022-12-18T07:03:59.739Z,8.63
2022-12-18T07:06:28.104Z,8.00
2022-12-18T07:08:56.719Z,7.60
2022-12-18T07:11:26.033Z,6.80
2022-12-18T07:13:55.713Z,7.10
2022-12-18T07:16:26.111Z,6.43
2022-12-18T07:18:55.622Z,6.72
2022-12-18T07:21:24.432Z,5.72
2022-12-18T07:23:53.399Z,7.60
2022-12-18T07:26:22.707Z,7.78
2022-12-18T07:28:52.059Z,7.43
2022-12-18T07:31:23.124Z,8.80
2022-12-18T07:33:54.332Z,7.75
2022-12-18T07:36:25.860Z,7.55
2022-12-18T07:38:54.806Z,7.35
2022-12-18T07:41:23.220Z,9.45
2022-12-18T07:43:51.311Z,7.80
2022-12-18T07:46:20.231Z,7.05
2022-12-18T07:48:50.517Z,6.43
2022-12-18T07:51:20.954Z,7.18
2022-12-18T07:53:52.202Z,12.50
2022-12-18T07:56:30.528Z,9.23
2022-12-18T07:59:00.912Z,8.77
2022-12-18T08:01:30.112Z,8.75
2022-12-18T08:04:00.401Z,8.32
2022-12-18T08:06:33.429Z,7.82
2022-12-18T08:09:02.758Z,7.70
2022-12-18T08:11:31.060Z,10.50
2022-12-18T08:13:59.971Z,10.27
2022-12-18T08:16:28.851Z,9.55
2022-12-18T08:18:58.171Z,9.50
2022-12-18T08:21:28.210Z,7.75
2022-12-18T08:24:02.260Z,8.35
2022-12-18T08:26:32.262Z,8.30
2022-12-18T08:29:01.171Z,8.40
2022-12-18T08:31:30.700Z,7.72
2022-12-18T08:33:59.137Z,6.97
2022-12-18T08:36:28.001Z,7.30
2022-12-18T08:38:58.711Z,7.00
2022-12-18T08:41:27.250Z,6.95
2022-12-18T08:44:13.851Z,6.82
2022-12-18T08:46:43.422Z,6.80
2022-12-18T08:49:12.474Z,6.07
2022-12-18T08:51:41.019Z,6.13
2022-12-18T08:54:13.880Z,5.20
2022-12-18T08:56:41.971Z,5.00
2022-12-18T08:59:17.360Z,5.15
2022-12-18T09:01:48.004Z,6.15
2022-12-18T09:04:16.121Z,4.43
2022-12-18T09:06:44.789Z,4.03
2022-12-18T09:09:14.560Z,4.85
2022-12-18T09:11:43.030Z,4.60
2022-12-18T09:14:11.443Z,4.18
2022-12-18T09:16:39.813Z,4.20
2022-12-18T09:19:08.122Z,4.05
2022-12-18T09:21:37.574Z,4.38
2022-12-18T09:24:08.609Z,5.00
2022-12-18T09:26:38.608Z,5.80
2022-12-18T09:29:08.580Z,4.95
2022-12-18T09:31:38.039Z,5.03
2022-12-18T09:34:09.499Z,4.85
2022-12-18T09:36:37.581Z,4.82
2022-12-18T09:39:08.547Z,4.60
2022-12-18T09:41:45.992Z,4.45
2022-12-18T09:44:27.378Z,4.07
2022-12-18T09:47:15.870Z,4.35
2022-12-18T09:49:45.740Z,4.38
2022-12-18T09:52:18.780Z,3.92
2022-12-18T09:54:53.271Z,4.50
2022-12-18T09:57:25.881Z,4.35
2022-12-18T09:59:57.920Z,4.72
2022-12-18T10:02:28.040Z,4.43
2022-12-18T10:05:11.901Z,4.38
2022-12-18T10:07:56.672Z,3.53
2022-12-18T10:10:33.446Z,3.70
2022-12-18T10:13:16.951Z,3.85
2022-12-18T10:15:55.366Z,3.70
2022-12-18T10:18:36.400Z,3.60
2022-12-18T10:21:11.847Z,4.20
2022-12-18T10:23:48.549Z,3.65
2022-12-18T10:26:16.930Z,3.75
2022-12-18T10:28:47.511Z,3.75
2022-12-18T10:31:18.522Z,3.70
2022-12-18T10:33:47.168Z,3.70
2022-12-18T10:36:15.382Z,3.65
2022-12-18T10:38:43.972Z,4.40
2022-12-18T10:41:32.200Z,4.40
2022-12-18T10:44:23.541Z,3.80
2022-12-18T10:46:57.275Z,3.38
2022-12-18T10:49:27.851Z,3.85
2022-12-18T10:52:13.690Z,4.32
2022-12-18T10:54:47.666Z,3.90
2022-12-18T10:57:32.091Z,3.95
2022-12-18T11:00:21.909Z,3.40
2022-12-18T11:02:50.363Z,3.50
2022-12-18T11:05:27.460Z,3.85
2022-12-18T11:07:56.690Z,3.38
2022-12-18T11:10:29.541Z,3.50
2022-12-18T11:13:09.991Z,3.03
2022-12-18T11:15:42.846Z,3.63
2022-12-18T11:18:20.550Z,3.08
2022-12-18T11:20:58.340Z,3.80
2022-12-18T11:23:28.411Z,3.65
2022-12-18T11:25:59.282Z,3.60
2022-12-18T11:28:30.999Z,3.70
2022-12-18T11:31:20.855Z,3.75
2022-12-18T11:36:52.653Z,2.80
2022-12-18T11:39:31.931Z,2.40
2022-12-18T11:42:11.639Z,4.70
2022-12-18T11:44:46.364Z,4.10
2022-12-18T11:47:26.890Z,4.13
2022-12-18T11:49:58.245Z,3.80
2022-12-18T11:52:32.350Z,3.85
2022-12-18T11:55:06.240Z,3.15
2022-12-18T11:57:41.381Z,3.17
2022-12-18T12:00:16.191Z,3.20
2022-12-18T12:03:13.493Z,3.05
2022-12-18T12:05:53.091Z,2.72
2022-12-18T12:08:36.070Z,2.50
2022-12-18T12:11:12.461Z,3.40
2022-12-18T12:13:50.386Z,2.95
2022-12-18T12:16:23.683Z,3.45
2022-12-18T12:19:03.116Z,2.80
2022-12-18T12:21:40.684Z,2.67
2022-12-18T12:24:27.426Z,2.63
2022-12-18T12:27:05.379Z,2.78
2022-12-18T12:29:49.174Z,2.42
2022-12-18T12:32:31.256Z,2.95
2022-12-18T12:35:17.881Z,2.40
2022-12-18T12:37:55.158Z,2.50
2022-12-18T12:40:51.414Z,2.90
2022-12-18T12:43:26.285Z,2.40
2022-12-18T12:46:02.224Z,2.10
2022-12-18T12:48:40.232Z,2.13
2022-12-18T12:51:17.039Z,2.25
2022-12-18T12:56:16.929Z,2.10
2022-12-18T12:58:58.148Z,2.17
2022-12-18T13:01:36.884Z,2.13
2022-12-18T13:04:14.665Z,2.47
2022-12-18T13:06:51.933Z,2.20
2022-12-18T13:09:19.993Z,1.40
2022-12-18T13:12:07.015Z,1.58
2022-12-18T13:14:37.015Z,1.58
2022-12-18T13:17:33.694Z,2.30
2022-12-18T13:20:19.112Z,2.20
2022-12-18T13:22:50.383Z,1.73
2022-12-18T13:25:35.026Z,1.77
2022-12-18T13:28:14.374Z,2.25
2022-12-18T13:30:52.609Z,2.05
2022-12-18T13:34:24.006Z,1.67
2022-12-18T13:39:35.368Z,2.17
2022-12-18T13:42:59.884Z,2.55
2022-12-18T13:45:42.143Z,2.13
2022-12-18T13:48:23.189Z,1.50
2022-12-18T13:50:58.660Z,1.52
2022-12-18T13:53:33.833Z,1.42
2022-12-18T13:56:04.220Z,2.15
2022-12-18T13:58:32.365Z,1.40
2022-12-18T14:01:00.743Z,1.80
2022-12-18T14:03:30.552Z,1.75
2022-12-18T14:06:03.835Z,2.30
2022-12-18T14:08:37.249Z,2.42
2022-12-18T14:11:08.547Z,2.15
2022-12-18T14:13:42.727Z,2.30
2022-12-18T14:16:16.773Z,1.98
2022-12-18T14:18:49.155Z,2.40
2022-12-18T14:21:23.392Z,2.22
2022-12-18T14:24:05.084Z,2.03
2022-12-18T14:26:34.941Z,1.98
2022-12-18T14:29:20.714Z,4.03
2022-12-18T14:32:13.481Z,2.75
2022-12-18T14:34:45.982Z,3.78
2022-12-18T14:37:17.857Z,3.22
2022-12-18T14:39:57.797Z,2.50
2022-12-18T14:42:29.470Z,2.15
2022-12-18T14:45:41.044Z,2.20
2022-12-18T14:48:16.323Z,2.40
2022-12-18T14:50:58.877Z,2.88
2022-12-18T14:53:36.374Z,2.08
2022-12-18T14:56:11.772Z,2.30
2022-12-18T14:58:45.477Z,2.55
2022-12-18T15:01:20.742Z,2.17
2022-12-18T15:03:48.874Z,2.25
2022-12-18T15:06:18.976Z,4.13
2022-12-18T15:08:47.389Z,3.47
2022-12-18T15:11:36.139Z,3.75
2022-12-18T15:14:32.397Z,4.07
2022-12-18T15:17:01.636Z,4.60
2022-12-18T15:19:37.161Z,6.30
2022-12-18T15:22:06.803Z,8.20
2022-12-18T15:24:34.796Z,11.00
2022-12-18T15:27:02.869Z,9.20
2022-12-18T15:29:32.300Z,7.00
2022-12-18T15:32:04.673Z,5.78
2022-12-18T15:34:33.667Z,4.38
2022-12-18T15:37:01.687Z,4.30
2022-12-18T15:39:29.844Z,3.55
2022-12-18T15:42:15.976Z,2.95
2022-12-18T15:44:46.003Z,3.17
2022-12-18T15:47:14.546Z,3.28
2022-12-18T15:49:42.641Z,3.15
2022-12-18T15:52:14.635Z,3.50
2022-12-18T15:55:18.043Z,3.40
2022-12-18T15:57:46.116Z,4.18
2022-12-18T16:00:16.479Z,3.90
2022-12-18T16:02:44.602Z,5.40
2022-12-18T16:05:16.333Z,7.78
2022-12-18T16:07:44.218Z,8.68
2022-12-18T16:10:12.398Z,8.75
2022-12-18T16:12:40.633Z,7.93
2022-12-18T16:15:16.648Z,7.07
2022-12-18T16:17:50.516Z,7.82
2022-12-18T16:20:22.078Z,7.43
2022-12-18T16:22:51.221Z,7.30
2022-12-18T16:25:22.732Z,8.20
2022-12-18T16:27:52.081Z,8.45
2022-12-18T16:30:22.343Z,9.48
2022-12-18T16:32:52.154Z,7.38
2022-12-18T16:35:20.340Z,7.72
2022-12-18T16:37:48.739Z,8.02
2022-12-18T16:40:18.359Z,7.25
2022-12-18T16:42:47.676Z,7.38
2022-12-18T16:45:18.250Z,8.00
2022-12-18T16:47:47.226Z,7.88
2022-12-18T16:50:17.223Z,8.10
2022-12-18T16:52:45.483Z,7.35
2022-12-18T16:55:13.945Z,6.78
2022-12-18T16:57:42.445Z,7.72
2022-12-18T17:00:12.311Z,8.35
2022-12-18T17:02:40.674Z,8.52
2022-12-18T17:05:09.458Z,8.43
2022-12-18T17:07:41.490Z,9.40
2022-12-18T17:10:10.405Z,9.50
2022-12-18T17:12:38.652Z,8.80
2022-12-18T17:15:08.560Z,8.15
2022-12-18T17:17:37.117Z,8.20
2022-12-18T17:20:06.221Z,8.00
2022-12-18T17:22:34.608Z,7.95
2022-12-18T17:25:04.661Z,7.10
2022-12-18T17:27:33.029Z,7.53
2022-12-18T17:30:01.302Z,7.50
2022-12-18T17:32:29.777Z,7.00
2022-12-18T17:35:00.475Z,6.88
2022-12-18T17:37:31.112Z,7.18
2022-12-18T17:39:59.291Z,6.50
2022-12-18T17:42:29.014Z,6.63
2022-12-18T17:44:57.364Z,6.65
2022-12-18T17:47:25.540Z,6.15
2022-12-18T17:49:53.895Z,7.15
2022-12-18T17:52:23.975Z,7.20
2022-12-18T17:54:53.480Z,7.70
2022-12-18T17:57:22.713Z,7.38
2022-12-18T17:59:53.767Z,7.95
2022-12-18T18:02:22.241Z,9.20
2022-12-18T18:04:51.649Z,8.50
2022-12-18T18:07:19.948Z,8.27
2022-12-18T18:09:48.167Z,9.15
2022-12-18T18:12:35.081Z,10.15
2022-12-18T18:15:06.126Z,11.07
2022-12-18T18:17:34.453Z,10.73
2022-12-18T18:20:02.756Z,10.63
2022-12-18T18:22:31.179Z,14.45
2022-12-18T18:25:17.353Z,13.82
2022-12-18T18:30:17.412Z,13.35
2022-12-18T18:32:48.070Z,12.73
2022-12-18T18:35:45.184Z,13.50
2022-12-18T18:38:05.846Z,13.02
2022-12-18T18:40:34.015Z,13.75
2022-12-18T18:43:02.501Z,14.45
2022-12-18T18:45:34.284Z,16.05
2022-12-18T18:48:02.798Z,18.55
2022-12-18T18:50:33.960Z,18.05
2022-12-18T18:53:02.567Z,16.50
2022-12-18T18:55:34.025Z,14.73
2022-12-18T18:58:02.809Z,14.25
2022-12-18T19:00:34.424Z,14.13
2022-12-18T19:03:03.459Z,14.55
2022-12-18T19:05:32.500Z,15.10
2022-12-18T19:08:00.989Z,14.70
2022-12-18T19:10:30.045Z,16.55
2022-12-18T19:13:17.021Z,16.38
2022-12-18T19:15:46.900Z,16.63
2022-12-18T19:18:16.031Z,14.77
2022-12-18T19:20:44.786Z,13.85
2022-12-18T19:23:13.791Z,14.15
2022-12-18T19:25:42.740Z,17.13
2022-12-18T19:28:18.965Z,15.40
2022-12-18T19:31:00.990Z,18.45
2022-12-18T19:33:45.699Z,20.75
2022-12-18T19:36:18.674Z,22.27
2022-12-18T19:38:47.817Z,26.90
2022-12-18T19:41:18.056Z,26.35
2022-12-18T19:43:47.139Z,26.08
2022-12-18T19:46:18.411Z,24.27
2022-12-18T19:48:47.545Z,21.10
2022-12-18T19:51:18.380Z,18.63
2022-12-18T19:53:47.955Z,17.42
2022-12-18T19:56:17.877Z,16.60
2022-12-18T19:58:46.586Z,19.02
2022-12-18T20:01:42.949Z,18.58
2022-12-18T20:04:11.651Z,18.50
2022-12-18T20:06:48.420Z,18.40
2022-12-18T20:09:17.402Z,15.65
2022-12-18T20:11:46.495Z,14.70
2022-12-18T20:14:19.650Z,13.35
2022-12-18T20:16:53.454Z,11.38
2022-12-18T20:19:22.610Z,9.95
2022-12-18T20:21:50.709Z,10.27
2022-12-18T20:24:18.951Z,10.85
2022-12-18T20:26:47.413Z,9.80
2022-12-18T20:29:15.815Z,9.90
2022-12-18T20:31:43.979Z,11.98
2022-12-18T20:34:13.686Z,13.35
2022-12-18T20:36:42.139Z,13.57
2022-12-18T20:39:10.887Z,13.45
2022-12-18T20:41:40.358Z,12.43
2022-12-18T20:44:21.665Z,11.50
2022-12-18T20:46:57.253Z,10.27
2022-12-18T20:49:27.959Z,9.48
2022-12-18T20:51:57.821Z,10.02
2022-12-18T20:54:27.361Z,11.15
2022-12-18T20:56:55.935Z,14.30
2022-12-18T20:59:25.877Z,15.32
2022-12-18T21:01:57.474Z,15.45
2022-12-18T21:04:28.108Z,13.13
2022-12-18T21:07:02.350Z,12.77
2022-12-18T21:09:37.167Z,11.30
2022-12-18T21:12:25.639Z,11.02
2022-12-18T21:14:53.863Z,10.75
2022-12-18T21:17:22.201Z,10.48
2022-12-18T21:19:51.547Z,11.32
2022-12-18T21:22:20.148Z,10.85
2022-12-18T21:24:48.499Z,27.73
2022-12-18T21:27:17.829Z,27.30
2022-12-18T21:29:47.347Z,23.02
2022-12-18T21:32:15.833Z,20.13
2022-12-18T21:34:47.977Z,16.35
2022-12-18T21:37:18.091Z,14.20
2022-12-18T21:39:47.926Z,14.45
2022-12-18T21:42:34.692Z,13.80
2022-12-18T21:45:02.791Z,13.43
2022-12-18T21:47:30.799Z,15.52
2022-12-18T21:49:58.833Z,16.67
2022-12-18T21:52:32.203Z,16.88
2022-12-18T21:55:10.294Z,15.40
2022-12-18T21:57:39.597Z,13.07
2022-12-18T22:00:18.315Z,13.15
2022-12-18T22:02:48.139Z,12.30
2022-12-18T22:05:16.476Z,10.77
2022-12-18T22:07:46.462Z,10.85
2022-12-18T22:10:15.957Z,10.70
2022-12-18T22:12:45.844Z,9.40
2022-12-18T22:15:20.296Z,10.70
2022-12-18T22:17:51.272Z,9.55
2022-12-18T22:20:29.365Z,9.73
2022-12-18T22:23:01.057Z,11.68
2022-12-18T22:25:35.227Z,11.23
2022-12-18T22:28:24.223Z,10.40
2022-12-18T22:30:57.739Z,7.90
2022-12-18T22:33:27.936Z,6.97
2022-12-18T22:35:56.158Z,6.85
2022-12-18T22:38:25.744Z,8.10
2022-12-18T22:40:54.971Z,8.40
2022-12-18T22:43:23.268Z,7.40
2022-12-18T22:45:51.326Z,6.38
2022-12-18T22:48:19.557Z,6.10
2022-12-18T22:50:49.209Z,5.85
2022-12-18T22:53:19.980Z,5.97
2022-12-18T22:55:49.800Z,7.15
2022-12-18T22:58:18.157Z,6.85
2022-12-18T23:00:46.693Z,6.28
2022-12-18T23:03:15.700Z,6.00
2022-12-18T23:05:52.353Z,5.65
2022-12-18T23:08:22.872Z,4.78
2022-12-18T23:10:55.420Z,5.07
2022-12-18T23:13:23.668Z,4.93
2022-12-18T23:15:51.651Z,4.32
2022-12-18T23:18:19.574Z,4.20
2022-12-18T23:20:47.609Z,4.55
2022-12-18T23:23:16.545Z,4.40
2022-12-18T23:25:44.539Z,4.00
2022-12-18T23:28:13.815Z,4.03
2022-12-18T23:30:41.784Z,4.13
2022-12-18T23:33:14.001Z,5.13
2022-12-18T23:35:41.978Z,5.18
2022-12-18T23:38:10.164Z,4.53
2022-12-18T23:40:38.199Z,4.30
2022-12-18T23:43:06.336Z,4.20
2022-12-18T23:45:39.460Z,5.63
2022-12-18T23:48:07.488Z,4.45
2022-12-18T23:50:36.099Z,4.57
2022-12-18T23:53:05.501Z,4.07
2022-12-18T23:55:38.951Z,5.05
2022-12-18T23:58:07.339Z,4.25
